createdAt,value
2019-01-30T00:00:38.154Z,35.87
2019-01-30T00:03:06.913Z,31.33
2019-01-30T00:05:36.916Z,29.63
2019-01-30T00:10:56.089Z,29.10
2019-01-30T00:13:24.768Z,34.43
2019-01-30T00:18:42.552Z,34.53
2019-01-30T00:21:11.181Z,30.13
2019-01-30T00:23:39.952Z,30.80
2019-01-30T00:29:51.424Z,40.73
2019-01-30T00:32:26.164Z,40.90
2019-01-30T00:35:25.314Z,44.40
2019-01-30T00:37:55.125Z,36.33
2019-01-30T00:40:23.880Z,41.20
2019-01-30T00:42:52.655Z,40.87
2019-01-30T00:45:22.240Z,42.70
2019-01-30T00:47:50.958Z,38.20
2019-01-30T00:50:21.504Z,39.00
2019-01-30T00:52:53.075Z,35.73
2019-01-30T00:55:21.793Z,37.80
2019-01-30T00:57:50.546Z,38.37
2019-01-30T01:00:24.560Z,35.67
2019-01-30T01:02:54.453Z,34.33
2019-01-30T01:05:23.479Z,37.97
2019-01-30T01:07:52.370Z,32.40
2019-01-30T01:10:22.043Z,34.57
2019-01-30T01:12:50.857Z,34.90
2019-01-30T01:15:19.602Z,39.03
2019-01-30T01:17:48.324Z,40.27
2019-01-30T01:20:22.068Z,35.40
2019-01-30T01:22:50.835Z,35.00
2019-01-30T01:25:19.578Z,42.07
2019-01-30T01:27:48.300Z,34.83
2019-01-30T01:30:25.289Z,41.07
2019-01-30T01:32:49.921Z,44.83
2019-01-30T01:35:18.610Z,36.07
2019-01-30T01:37:47.395Z,39.20
2019-01-30T01:40:17.137Z,34.33
2019-01-30T01:42:45.957Z,35.53
2019-01-30T01:45:17.277Z,37.40
2019-01-30T01:47:48.964Z,38.17
2019-01-30T01:50:20.324Z,41.63
2019-01-30T01:52:58.569Z,37.27
2019-01-30T01:55:32.702Z,38.87
2019-01-30T01:58:01.457Z,36.33
2019-01-30T02:00:35.568Z,39.50
2019-01-30T02:03:00.607Z,39.47
2019-01-30T02:05:31.574Z,41.67
2019-01-30T02:08:00.404Z,42.07
2019-01-30T02:10:29.216Z,39.50
2019-01-30T02:12:57.906Z,42.73
2019-01-30T02:15:26.617Z,34.97
2019-01-30T02:17:55.357Z,34.67
2019-01-30T02:20:26.597Z,35.93
2019-01-30T02:22:55.355Z,39.90
2019-01-30T02:25:24.187Z,38.40
2019-01-30T02:27:52.977Z,36.60
2019-01-30T02:30:23.953Z,42.17
2019-01-30T02:32:52.686Z,40.13
2019-01-30T02:35:21.686Z,41.33
2019-01-30T02:40:32.442Z,37.27
2019-01-30T02:43:01.233Z,39.00
2019-01-30T02:45:29.995Z,38.90
2019-01-30T02:48:30.135Z,36.60
2019-01-30T02:54:04.795Z,37.43
2019-01-30T02:57:05.435Z,36.80
2019-01-30T03:05:43.600Z,33.37
2019-01-30T03:08:25.603Z,37.43
2019-01-30T03:13:46.805Z,39.30
2019-01-30T03:16:51.168Z,38.87
2019-01-30T03:22:51.990Z,37.30
2019-01-30T03:25:23.767Z,39.67
2019-01-30T03:27:54.330Z,35.73
2019-01-30T03:30:28.416Z,37.57
2019-01-30T03:33:06.233Z,39.10
2019-01-30T03:35:57.799Z,39.63
2019-01-30T03:38:47.204Z,36.97
2019-01-30T03:44:41.551Z,34.90
2019-01-30T03:47:16.259Z,36.67
2019-01-30T03:49:49.860Z,37.27
2019-01-30T03:52:43.597Z,35.53
2019-01-30T03:58:18.377Z,35.50
2019-01-30T04:00:53.005Z,38.77
2019-01-30T04:03:21.740Z,35.73
2019-01-30T04:05:57.408Z,35.00
2019-01-30T04:08:37.385Z,40.20
2019-01-30T04:11:03.409Z,35.03
2019-01-30T04:13:32.112Z,34.70
2019-01-30T04:16:02.344Z,33.87
2019-01-30T04:18:31.209Z,37.50
2019-01-30T04:20:59.869Z,33.07
2019-01-30T04:23:33.284Z,31.23
2019-01-30T04:29:07.831Z,33.00
2019-01-30T04:31:38.183Z,34.50
2019-01-30T04:34:08.551Z,34.13
2019-01-30T04:36:37.401Z,36.10
2019-01-30T04:39:07.278Z,35.90
2019-01-30T04:41:35.925Z,36.17
2019-01-30T04:44:04.744Z,33.70
2019-01-30T04:53:06.327Z,36.60
2019-01-30T04:55:35.097Z,34.53
2019-01-30T04:58:03.816Z,37.80
2019-01-30T05:00:32.576Z,40.23
2019-01-30T05:03:01.286Z,35.30
2019-01-30T05:05:30.161Z,34.37
2019-01-30T05:07:59.557Z,33.47
2019-01-30T05:10:28.169Z,37.47
2019-01-30T05:12:56.921Z,35.17
2019-01-30T05:15:25.388Z,37.67
2019-01-30T05:17:54.188Z,34.23
2019-01-30T05:20:22.594Z,34.00
2019-01-30T05:22:51.041Z,34.57
2019-01-30T05:25:19.602Z,35.07
2019-01-30T05:27:48.014Z,33.60
2019-01-30T05:30:19.259Z,35.13
2019-01-30T05:32:47.728Z,32.03
2019-01-30T05:35:16.226Z,34.17
2019-01-30T05:37:44.705Z,33.20
2019-01-30T05:40:16.061Z,39.23
2019-01-30T05:42:44.465Z,31.97
2019-01-30T05:45:15.734Z,35.40
2019-01-30T05:47:44.277Z,36.13
2019-01-30T05:50:13.929Z,30.87
2019-01-30T05:52:42.400Z,36.37
2019-01-30T05:55:13.359Z,33.17
2019-01-30T05:57:41.803Z,35.33
2019-01-30T06:00:19.109Z,34.63
2019-01-30T06:02:47.515Z,38.47
2019-01-30T06:05:16.047Z,34.93
2019-01-30T06:07:44.486Z,30.87
2019-01-30T06:10:12.952Z,33.53
2019-01-30T06:12:41.529Z,34.90
2019-01-30T06:15:18.085Z,33.10
2019-01-30T06:17:46.534Z,34.17
2019-01-30T06:20:21.017Z,35.40
2019-01-30T06:22:49.419Z,34.80
2019-01-30T06:25:17.853Z,35.50
2019-01-30T06:27:46.247Z,34.40
2019-01-30T06:30:17.071Z,34.07
2019-01-30T06:32:45.567Z,36.73
2019-01-30T06:35:13.963Z,32.07
2019-01-30T06:37:42.398Z,32.57
2019-01-30T06:40:16.885Z,33.43
2019-01-30T06:42:45.486Z,37.70
2019-01-30T06:45:14.031Z,34.70
2019-01-30T06:47:42.608Z,37.23
2019-01-30T06:50:13.427Z,34.67
2019-01-30T06:52:41.892Z,37.20
2019-01-30T06:55:10.415Z,31.83
2019-01-30T06:57:41.837Z,33.43
2019-01-30T07:00:19.298Z,35.87
2019-01-30T07:02:47.912Z,32.57
2019-01-30T07:05:16.574Z,34.30
2019-01-30T07:07:45.155Z,32.90
2019-01-30T07:10:17.997Z,36.90
2019-01-30T07:12:47.365Z,35.77
2019-01-30T07:15:16.102Z,34.93
2019-01-30T07:17:44.580Z,35.97
2019-01-30T07:20:17.041Z,37.77
2019-01-30T07:22:45.636Z,34.90
2019-01-30T07:25:16.198Z,34.13
2019-01-30T07:27:45.468Z,36.03
2019-01-30T07:30:29.865Z,37.23
2019-01-30T07:32:58.361Z,31.50
2019-01-30T07:35:27.177Z,55.30
2019-01-30T07:37:55.677Z,49.17
2019-01-30T07:40:24.148Z,41.40
2019-01-30T07:42:52.753Z,38.90
2019-01-30T07:45:24.104Z,41.80
2019-01-30T07:47:52.538Z,36.70
2019-01-30T07:50:21.237Z,45.03
2019-01-30T07:52:49.740Z,33.43
2019-01-30T07:55:19.049Z,31.67
2019-01-30T07:57:50.065Z,34.73
2019-01-30T08:00:25.767Z,34.57
2019-01-30T08:02:54.184Z,33.53
2019-01-30T08:05:22.957Z,46.27
2019-01-30T08:07:51.599Z,36.70
2019-01-30T08:10:20.052Z,36.27
2019-01-30T08:12:48.606Z,34.07
2019-01-30T08:15:24.491Z,35.77
2019-01-30T08:17:52.955Z,35.00
2019-01-30T08:20:22.631Z,35.53
2019-01-30T08:22:51.215Z,36.37
2019-01-30T08:25:21.889Z,37.43
2019-01-30T08:27:50.886Z,40.50
2019-01-30T08:30:30.128Z,37.67
2019-01-30T08:33:04.757Z,36.00
2019-01-30T08:35:30.619Z,34.17
2019-01-30T08:37:59.052Z,37.17
2019-01-30T08:40:27.463Z,39.13
2019-01-30T08:42:55.928Z,36.70
2019-01-30T08:45:29.072Z,38.90
2019-01-30T08:47:57.477Z,39.00
2019-01-30T08:50:26.163Z,35.63
2019-01-30T08:52:54.559Z,34.53
2019-01-30T08:55:23.069Z,34.03
2019-01-30T08:57:51.540Z,31.20
2019-01-30T09:00:22.420Z,32.57
2019-01-30T09:02:50.852Z,34.13
2019-01-30T09:05:19.240Z,38.97
2019-01-30T09:07:47.688Z,32.27
2019-01-30T09:10:21.846Z,35.27
2019-01-30T09:12:50.287Z,32.73
2019-01-30T09:15:20.716Z,36.07
2019-01-30T09:17:49.156Z,34.03
2019-01-30T09:20:24.805Z,38.20
2019-01-30T09:22:53.377Z,34.30
2019-01-30T09:25:24.749Z,31.30
2019-01-30T09:27:53.181Z,32.80
2019-01-30T09:30:27.567Z,33.00
2019-01-30T09:32:56.055Z,31.10
2019-01-30T09:35:24.531Z,34.13
2019-01-30T09:37:53.043Z,34.10
2019-01-30T09:40:22.360Z,35.83
2019-01-30T09:42:50.860Z,33.90
2019-01-30T09:45:20.623Z,37.20
2019-01-30T09:47:49.003Z,33.97
2019-01-30T09:50:19.745Z,33.07
2019-01-30T09:52:48.240Z,33.23
2019-01-30T09:55:17.166Z,34.93
2019-01-30T09:57:45.618Z,36.77
2019-01-30T10:00:22.875Z,36.17
2019-01-30T10:02:51.337Z,33.10
2019-01-30T10:05:19.863Z,37.40
2019-01-30T10:07:48.380Z,33.53
2019-01-30T10:10:19.696Z,33.57
2019-01-30T10:12:48.201Z,30.27
2019-01-30T10:15:19.244Z,34.93
2019-01-30T10:17:47.677Z,34.17
2019-01-30T10:20:24.321Z,38.50
2019-01-30T10:22:52.764Z,32.23
2019-01-30T10:25:21.232Z,32.50
2019-01-30T10:27:49.727Z,36.20
2019-01-30T10:30:23.910Z,32.63
2019-01-30T10:32:52.511Z,30.03
2019-01-30T10:35:20.910Z,34.43
2019-01-30T10:37:49.384Z,35.67
2019-01-30T10:40:20.052Z,36.13
2019-01-30T10:42:48.955Z,31.67
2019-01-30T10:45:20.241Z,31.23
2019-01-30T10:47:47.727Z,30.27
2019-01-30T10:50:21.906Z,27.03
2019-01-30T10:52:50.481Z,26.43
2019-01-30T10:55:21.609Z,25.37
2019-01-30T10:57:52.072Z,24.13
2019-01-30T11:00:29.612Z,22.63
2019-01-30T11:02:58.245Z,24.13
2019-01-30T11:05:26.639Z,27.97
2019-01-30T11:07:55.064Z,28.80
2019-01-30T11:10:23.460Z,26.57
2019-01-30T11:12:51.941Z,29.67
2019-01-30T11:15:26.494Z,29.33
2019-01-30T11:17:55.028Z,27.63
2019-01-30T11:20:23.491Z,30.20
2019-01-30T11:22:53.679Z,34.63
2019-01-30T11:25:24.878Z,41.93
2019-01-30T11:27:53.283Z,42.17
2019-01-30T11:30:22.149Z,40.93
2019-01-30T11:32:50.543Z,38.07
2019-01-30T11:35:19.046Z,31.57
2019-01-30T11:37:47.424Z,26.90
2019-01-30T11:40:18.199Z,28.57
2019-01-30T11:42:46.672Z,29.60
2019-01-30T11:45:24.025Z,35.70
2019-01-30T11:47:52.432Z,33.03
2019-01-30T11:50:20.857Z,37.10
2019-01-30T11:52:49.255Z,30.47
2019-01-30T11:55:19.259Z,28.33
2019-01-30T11:57:47.879Z,26.17
2019-01-30T12:00:20.359Z,26.17
2019-01-30T12:02:48.853Z,30.60
2019-01-30T12:05:18.582Z,26.37
2019-01-30T12:07:47.079Z,24.93
2019-01-30T12:10:15.639Z,22.00
2019-01-30T12:12:44.131Z,26.47
2019-01-30T12:15:20.983Z,25.33
2019-01-30T12:17:49.494Z,26.60
2019-01-30T12:20:18.014Z,25.87
2019-01-30T12:22:46.434Z,23.73
2019-01-30T12:25:21.984Z,25.13
2019-01-30T12:27:51.111Z,22.53
2019-01-30T12:30:27.695Z,22.70
2019-01-30T12:32:56.103Z,27.77
2019-01-30T12:35:24.668Z,23.40
2019-01-30T12:37:53.047Z,23.77
2019-01-30T12:40:24.034Z,22.40
2019-01-30T12:42:52.447Z,20.53
2019-01-30T12:45:28.513Z,20.03
2019-01-30T12:47:57.608Z,25.60
2019-01-30T12:50:26.137Z,19.80
2019-01-30T12:52:54.519Z,21.60
2019-01-30T12:55:23.022Z,21.70
2019-01-30T12:57:51.494Z,20.80
2019-01-30T13:00:25.595Z,18.40
2019-01-30T13:02:53.999Z,18.30
2019-01-30T13:05:24.568Z,20.10
2019-01-30T13:07:53.028Z,14.67
2019-01-30T13:10:21.421Z,14.60
2019-01-30T13:12:49.856Z,13.03
2019-01-30T13:15:20.778Z,11.83
2019-01-30T13:17:49.220Z,13.60
2019-01-30T13:20:19.357Z,11.40
2019-01-30T13:22:47.845Z,11.50
2019-01-30T13:25:18.891Z,13.13
2019-01-30T13:27:47.420Z,13.70
2019-01-30T13:30:21.840Z,10.90
2019-01-30T13:32:50.238Z,10.10
2019-01-30T13:35:18.737Z,9.77
2019-01-30T13:37:47.156Z,8.50
2019-01-30T13:40:21.192Z,8.93
2019-01-30T13:42:49.646Z,9.23
2019-01-30T13:45:20.024Z,12.00
2019-01-30T13:47:48.350Z,8.00
2019-01-30T13:50:19.619Z,7.33
2019-01-30T13:52:48.014Z,5.33
2019-01-30T13:55:16.569Z,6.20
2019-01-30T13:57:44.983Z,7.07
2019-01-30T14:00:16.464Z,4.30
2019-01-30T14:02:44.910Z,4.30
2019-01-30T14:05:13.295Z,3.83
2019-01-30T14:07:41.716Z,2.93
2019-01-30T14:10:10.739Z,2.63
2019-01-30T14:12:39.200Z,4.40
2019-01-30T14:15:11.107Z,2.50
2019-01-30T14:17:39.546Z,2.00
2019-01-30T14:20:11.238Z,2.37
2019-01-30T14:22:39.647Z,2.17
2019-01-30T14:25:10.427Z,3.87
2019-01-30T14:27:39.262Z,2.03
2019-01-30T14:30:16.816Z,3.03
2019-01-30T14:32:45.308Z,1.37
2019-01-30T14:35:13.825Z,1.10
2019-01-30T14:40:49.762Z,1.47
2019-01-30T14:43:49.661Z,2.63
2019-01-30T14:56:52.398Z,6.23
2019-01-30T14:59:27.421Z,1.17
2019-01-30T15:01:55.946Z,2.47
2019-01-30T15:04:30.318Z,1.13
2019-01-30T15:07:09.872Z,0.67
2019-01-30T15:15:40.541Z,1.17
2019-01-30T15:21:13.919Z,0.80
2019-01-30T15:24:05.113Z,1.73
2019-01-30T15:27:08.988Z,2.40
2019-01-30T15:41:47.897Z,1.70
2019-01-30T15:44:16.577Z,2.10
2019-01-30T15:52:31.174Z,1.63
2019-01-30T15:55:24.134Z,2.27
2019-01-30T15:57:55.642Z,2.80
2019-01-30T16:00:33.332Z,1.80
2019-01-30T16:03:02.288Z,3.73
2019-01-30T16:05:31.023Z,1.80
2019-01-30T16:08:01.546Z,2.43
2019-01-30T16:10:31.132Z,2.27
2019-01-30T16:13:00.081Z,2.60
2019-01-30T16:18:21.798Z,1.63
2019-01-30T16:20:50.182Z,2.77
2019-01-30T16:23:18.597Z,1.87
2019-01-30T16:25:46.998Z,2.87
2019-01-30T16:28:15.415Z,3.50
2019-01-30T16:30:43.793Z,3.07
2019-01-30T16:33:12.217Z,3.07
2019-01-30T16:35:40.678Z,2.37
2019-01-30T16:38:09.968Z,4.17
2019-01-30T16:40:38.352Z,3.07
2019-01-30T16:43:07.057Z,2.63
2019-01-30T16:45:35.468Z,2.80
2019-01-30T16:48:04.619Z,4.23
2019-01-30T16:50:34.428Z,2.20
2019-01-30T16:53:03.119Z,3.23
2019-01-30T16:55:31.577Z,6.87
2019-01-30T16:57:59.919Z,3.67
2019-01-30T17:00:31.202Z,2.33
2019-01-30T17:03:00.076Z,3.77
2019-01-30T17:05:28.976Z,3.57
2019-01-30T17:07:57.427Z,3.33
2019-01-30T17:10:25.869Z,2.97
2019-01-30T17:12:55.118Z,3.00
2019-01-30T17:15:29.639Z,4.40
2019-01-30T17:17:59.731Z,4.63
2019-01-30T17:20:30.351Z,2.67
2019-01-30T17:22:59.651Z,3.07
2019-01-30T17:25:28.038Z,2.67
2019-01-30T17:27:56.458Z,5.07
2019-01-30T17:30:37.250Z,3.57
2019-01-30T17:33:05.664Z,4.03
2019-01-30T17:35:34.118Z,3.30
2019-01-30T17:38:02.532Z,3.50
2019-01-30T17:40:30.942Z,3.70
2019-01-30T17:42:59.461Z,5.07
2019-01-30T17:45:27.867Z,3.73
2019-01-30T17:47:56.246Z,4.20
2019-01-30T17:50:31.498Z,3.57
2019-01-30T17:52:59.873Z,4.13
2019-01-30T17:55:28.282Z,3.53
2019-01-30T17:57:56.750Z,4.80
2019-01-30T18:00:29.723Z,4.70
2019-01-30T18:02:58.136Z,4.30
2019-01-30T18:05:26.582Z,3.33
2019-01-30T18:07:54.999Z,4.53
2019-01-30T18:10:23.622Z,4.80
2019-01-30T18:12:52.062Z,4.93
2019-01-30T18:15:21.054Z,4.73
2019-01-30T18:17:49.462Z,3.80
2019-01-30T18:20:19.683Z,3.97
2019-01-30T18:22:49.114Z,5.27
2019-01-30T18:25:21.899Z,4.00
2019-01-30T18:27:50.416Z,5.00
2019-01-30T18:30:20.276Z,5.20
2019-01-30T18:32:48.655Z,4.93
2019-01-30T18:35:17.071Z,4.60
2019-01-30T18:37:45.586Z,4.80
2019-01-30T18:40:20.167Z,4.60
2019-01-30T18:42:48.552Z,5.27
2019-01-30T18:45:21.967Z,4.77
2019-01-30T18:47:50.358Z,5.27
2019-01-30T18:50:21.571Z,5.77
2019-01-30T18:52:49.954Z,5.40
2019-01-30T18:55:18.322Z,6.17
2019-01-30T18:57:46.878Z,6.67
2019-01-30T19:00:33.739Z,6.70
2019-01-30T19:03:04.182Z,6.40
2019-01-30T19:05:33.381Z,7.00
2019-01-30T19:08:01.967Z,9.33
2019-01-30T19:10:30.346Z,7.83
2019-01-30T19:12:58.723Z,6.10
2019-01-30T19:15:28.271Z,7.07
2019-01-30T19:17:56.652Z,7.63
2019-01-30T19:20:33.938Z,7.33
2019-01-30T19:23:02.347Z,8.37
2019-01-30T19:25:30.826Z,7.23
2019-01-30T19:28:00.471Z,8.67
2019-01-30T19:30:30.795Z,10.87
2019-01-30T19:32:59.481Z,9.87
2019-01-30T19:35:27.936Z,9.03
2019-01-30T19:37:56.353Z,8.67
2019-01-30T19:40:24.734Z,9.23
2019-01-30T19:42:53.115Z,9.63
2019-01-30T19:45:25.951Z,6.97
2019-01-30T19:47:57.125Z,10.57
2019-01-30T19:50:28.472Z,8.80
2019-01-30T19:52:57.029Z,7.63
2019-01-30T19:55:25.447Z,6.23
2019-01-30T19:57:55.102Z,9.03
2019-01-30T20:00:29.280Z,4.50
2019-01-30T20:02:58.003Z,7.50
2019-01-30T20:05:26.382Z,7.33
2019-01-30T20:07:54.781Z,7.97
2019-01-30T20:10:29.143Z,7.67
2019-01-30T20:12:57.535Z,11.07
2019-01-30T20:15:26.786Z,6.40
2019-01-30T20:17:55.203Z,6.43
2019-01-30T20:20:23.589Z,6.27
2019-01-30T20:22:52.226Z,6.37
2019-01-30T20:25:23.594Z,4.77
2019-01-30T20:27:52.030Z,7.53
2019-01-30T20:30:22.350Z,9.97
2019-01-30T20:32:50.763Z,7.03
2019-01-30T20:35:19.259Z,6.23
2019-01-30T20:37:47.904Z,7.27
2019-01-30T20:40:21.958Z,7.47
2019-01-30T20:42:52.946Z,7.50
2019-01-30T20:45:33.058Z,9.80
2019-01-30T20:47:53.575Z,19.10
2019-01-30T20:50:31.514Z,19.20
2019-01-30T20:53:19.416Z,16.53
2019-01-30T20:55:48.188Z,54.23
2019-01-30T20:58:16.917Z,33.70
2019-01-30T21:00:45.651Z,64.40
2019-01-30T21:03:16.687Z,83.80
2019-01-30T21:05:45.339Z,24.23
2019-01-30T21:08:13.765Z,22.83
2019-01-30T21:11:02.372Z,26.30
2019-01-30T21:13:50.366Z,11.53
2019-01-30T21:16:18.706Z,8.10
2019-01-30T21:19:06.981Z,8.47
2019-01-30T21:21:36.720Z,6.63
2019-01-30T21:24:05.521Z,6.13
2019-01-30T21:26:54.904Z,5.83
2019-01-30T21:29:24.382Z,6.10
2019-01-30T21:31:54.840Z,7.87
2019-01-30T21:34:28.425Z,8.27
2019-01-30T21:36:57.187Z,8.70
2019-01-30T21:39:25.665Z,8.13
2019-01-30T21:42:09.688Z,9.10
2019-01-30T21:44:38.551Z,7.37
2019-01-30T21:47:06.975Z,9.03
2019-01-30T21:49:39.107Z,10.53
2019-01-30T21:52:12.183Z,11.27
2019-01-30T21:54:41.471Z,10.93
2019-01-30T21:57:12.771Z,10.33
2019-01-30T21:59:41.693Z,9.33
2019-01-30T22:02:10.950Z,8.63
2019-01-30T22:04:40.089Z,7.90
2019-01-30T22:07:11.703Z,7.27
2019-01-30T22:09:40.283Z,11.13
2019-01-30T22:12:09.108Z,13.20
2019-01-30T22:14:37.535Z,11.93
2019-01-30T22:17:06.117Z,15.57
2019-01-30T22:19:34.768Z,9.70
2019-01-30T22:22:03.233Z,15.30
2019-01-30T22:24:31.834Z,13.47
2019-01-30T22:27:00.629Z,14.53
2019-01-30T22:29:29.916Z,11.23
2019-01-30T22:31:58.615Z,14.47
2019-01-30T22:34:28.216Z,14.77
2019-01-30T22:36:56.848Z,12.23
2019-01-30T22:39:28.281Z,11.53
2019-01-30T22:41:55.980Z,14.37
2019-01-30T22:44:24.391Z,13.97
2019-01-30T22:46:52.876Z,12.53
2019-01-30T22:49:21.324Z,13.60
2019-01-30T22:51:49.745Z,12.43
2019-01-30T22:54:18.260Z,14.37
2019-01-30T22:56:46.846Z,12.70
2019-01-30T22:59:15.353Z,8.67
2019-01-30T23:01:46.793Z,8.97
2019-01-30T23:04:18.516Z,11.43
2019-01-30T23:07:08.032Z,10.57
2019-01-30T23:09:59.060Z,14.67
2019-01-30T23:12:33.580Z,13.17
2019-01-30T23:15:14.240Z,11.20
2019-01-30T23:18:11.804Z,13.10
2019-01-30T23:20:46.124Z,13.93
2019-01-30T23:23:26.921Z,14.23
2019-01-30T23:26:10.564Z,12.53
2019-01-30T23:29:00.468Z,17.90
2019-01-30T23:31:34.965Z,12.13
2019-01-30T23:34:21.622Z,17.80
2019-01-30T23:37:02.368Z,11.73
2019-01-30T23:39:51.960Z,12.87
2019-01-30T23:42:29.247Z,14.40
2019-01-30T23:45:20.168Z,12.07
2019-01-30T23:48:08.148Z,14.80
2019-01-30T23:50:54.934Z,16.80
2019-01-30T23:53:51.140Z,15.60
2019-01-30T23:56:28.823Z,14.83
2019-01-30T23:59:09.418Z,12.10
